createdAt,value
2019-03-04T00:01:00.169Z,99.90
2019-03-04T00:02:04.732Z,99.90
2019-03-04T00:03:09.223Z,99.90
2019-03-04T00:04:13.669Z,99.90
2019-03-04T00:05:18.107Z,99.90
2019-03-04T00:06:22.503Z,99.90
2019-03-04T00:07:26.849Z,99.90
2019-03-04T00:08:32.987Z,99.90
2019-03-04T00:09:37.716Z,99.90
2019-03-04T00:10:42.079Z,99.90
2019-03-04T00:11:46.500Z,99.90
2019-03-04T00:12:50.998Z,99.90
2019-03-04T00:13:55.369Z,99.90
2019-03-04T00:14:59.742Z,99.90
2019-03-04T00:16:04.242Z,99.90
2019-03-04T00:17:08.631Z,99.90
2019-03-04T00:18:13.197Z,99.90
2019-03-04T00:19:17.616Z,99.90
2019-03-04T00:20:22.011Z,99.90
2019-03-04T00:21:26.364Z,99.90
2019-03-04T00:22:30.890Z,99.90
2019-03-04T00:23:35.280Z,99.90
2019-03-04T00:24:39.879Z,99.90
2019-03-04T00:25:44.326Z,99.90
2019-03-04T00:26:48.764Z,99.90
2019-03-04T00:27:53.233Z,99.90
2019-03-04T00:28:57.558Z,99.90
2019-03-04T00:30:01.964Z,99.90
2019-03-04T00:31:06.340Z,99.90
2019-03-04T00:32:10.783Z,99.90
2019-03-04T00:33:15.187Z,99.90
2019-03-04T00:34:19.663Z,99.90
2019-03-04T00:35:24.007Z,99.90
2019-03-04T00:36:28.381Z,99.90
2019-03-04T00:37:32.664Z,99.90
2019-03-04T00:38:37.031Z,99.90
2019-03-04T00:39:41.476Z,99.90
2019-03-04T00:40:45.852Z,99.90
2019-03-04T00:41:50.255Z,99.90
2019-03-04T00:42:54.616Z,99.90
2019-03-04T00:43:58.926Z,99.90
2019-03-04T00:45:03.321Z,99.90
2019-03-04T00:46:07.724Z,99.90
2019-03-04T00:47:12.154Z,99.90
2019-03-04T00:48:17.052Z,99.90
2019-03-04T00:49:21.440Z,99.90
2019-03-04T00:50:25.852Z,99.90
2019-03-04T00:51:30.358Z,99.90
2019-03-04T00:52:34.697Z,99.90
2019-03-04T00:53:39.045Z,99.90
2019-03-04T00:54:43.449Z,99.90
2019-03-04T00:55:48.017Z,99.90
2019-03-04T00:56:52.331Z,99.90
2019-03-04T00:57:56.762Z,99.90
2019-03-04T00:59:01.151Z,99.90
2019-03-04T01:00:07.196Z,99.90
2019-03-04T01:01:11.610Z,99.90
2019-03-04T01:02:16.006Z,99.90
2019-03-04T01:03:20.325Z,99.90
2019-03-04T01:04:24.809Z,99.90
2019-03-04T01:05:29.416Z,99.90
2019-03-04T01:06:33.987Z,99.90
2019-03-04T01:07:38.479Z,99.90
2019-03-04T01:08:42.848Z,99.90
2019-03-04T01:09:47.302Z,99.90
2019-03-04T01:10:51.608Z,99.90
2019-03-04T01:11:56.078Z,99.90
2019-03-04T01:13:00.409Z,99.90
2019-03-04T01:14:05.290Z,99.90
2019-03-04T01:15:12.458Z,99.90
2019-03-04T01:16:16.864Z,99.90
2019-03-04T01:17:21.436Z,99.90
2019-03-04T01:18:26.051Z,99.90
2019-03-04T01:19:30.467Z,99.90
2019-03-04T01:20:34.933Z,99.90
2019-03-04T01:21:39.333Z,99.90
2019-03-04T01:22:43.895Z,99.90
2019-03-04T01:23:48.236Z,99.90
2019-03-04T01:24:52.725Z,99.90
2019-03-04T01:25:57.187Z,99.90
2019-03-04T01:27:01.706Z,99.90
2019-03-04T01:28:06.249Z,99.90
2019-03-04T01:29:10.809Z,99.90
2019-03-04T01:30:17.604Z,99.90
2019-03-04T01:31:21.984Z,99.90
2019-03-04T01:32:26.329Z,99.90
2019-03-04T01:33:30.715Z,99.90
2019-03-04T01:34:35.332Z,99.90
2019-03-04T01:35:41.901Z,99.90
2019-03-04T01:36:46.371Z,99.90
2019-03-04T01:37:50.984Z,99.90
2019-03-04T01:38:55.367Z,99.90
2019-03-04T01:39:59.715Z,99.90
2019-03-04T01:41:04.267Z,99.90
2019-03-04T01:42:08.670Z,99.90
2019-03-04T01:43:13.172Z,99.90
2019-03-04T01:44:18.002Z,99.90
2019-03-04T01:45:22.513Z,99.90
2019-03-04T01:46:27.160Z,99.90
2019-03-04T01:47:31.572Z,99.90
2019-03-04T01:48:36.041Z,99.90
2019-03-04T01:49:40.623Z,99.90
2019-03-04T01:50:45.098Z,99.90
2019-03-04T01:51:49.917Z,99.90
2019-03-04T01:52:54.297Z,99.90
2019-03-04T01:53:58.738Z,99.90
2019-03-04T01:55:03.037Z,99.90
2019-03-04T01:56:07.361Z,99.90
2019-03-04T01:57:14.641Z,99.90
2019-03-04T01:58:19.196Z,99.90
2019-03-04T01:59:23.657Z,99.90
2019-03-04T02:00:28.444Z,99.90
2019-03-04T02:01:32.828Z,99.90
2019-03-04T02:02:37.450Z,99.90
2019-03-04T02:03:41.905Z,99.90
2019-03-04T02:04:46.240Z,99.90
2019-03-04T02:05:50.631Z,99.90
2019-03-04T02:06:55.161Z,99.90
2019-03-04T02:07:59.613Z,99.90
2019-03-04T02:09:05.963Z,99.90
2019-03-04T02:10:12.757Z,99.90
2019-03-04T02:11:17.139Z,99.90
2019-03-04T02:12:21.528Z,99.90
2019-03-04T02:13:25.890Z,99.90
2019-03-04T02:14:30.287Z,99.90
2019-03-04T02:15:34.688Z,99.90
2019-03-04T02:16:39.274Z,99.90
2019-03-04T02:17:43.705Z,99.90
2019-03-04T02:18:48.007Z,99.90
2019-03-04T02:19:52.351Z,99.90
2019-03-04T02:20:56.691Z,99.90
2019-03-04T02:22:01.034Z,99.90
2019-03-04T02:23:05.681Z,99.90
2019-03-04T02:24:24.599Z,99.90
2019-03-04T02:26:18.712Z,99.90
2019-03-04T02:27:23.216Z,99.90
2019-03-04T02:28:27.558Z,99.50
2019-03-04T02:29:31.855Z,99.30
2019-03-04T02:30:36.418Z,98.90
2019-03-04T02:31:41.023Z,98.80
2019-03-04T02:32:45.496Z,98.40
2019-03-04T02:33:50.006Z,98.40
2019-03-04T02:34:54.472Z,98.00
2019-03-04T02:35:59.049Z,98.00
2019-03-04T02:37:03.678Z,97.80
2019-03-04T02:38:08.124Z,97.60
2019-03-04T02:39:13.022Z,97.70
2019-03-04T02:40:17.532Z,97.40
2019-03-04T02:41:22.101Z,97.30
2019-03-04T02:42:26.464Z,97.20
2019-03-04T02:43:30.820Z,97.10
2019-03-04T02:44:35.174Z,96.60
2019-03-04T02:45:39.593Z,96.60
2019-03-04T02:46:43.999Z,96.60
2019-03-04T02:47:48.537Z,96.40
2019-03-04T02:48:52.944Z,96.20
2019-03-04T02:49:57.276Z,95.90
2019-03-04T02:51:01.768Z,95.70
2019-03-04T02:52:06.432Z,95.70
2019-03-04T02:53:10.953Z,95.70
2019-03-04T02:54:15.524Z,95.60
2019-03-04T02:55:19.967Z,95.50
2019-03-04T02:56:24.368Z,95.40
2019-03-04T02:57:28.722Z,95.20
2019-03-04T02:58:33.068Z,95.00
2019-03-04T02:59:37.453Z,95.00
2019-03-04T03:00:41.908Z,95.00
2019-03-04T03:01:46.369Z,95.20
2019-03-04T03:02:50.693Z,94.70
2019-03-04T03:03:55.103Z,94.80
2019-03-04T03:04:59.513Z,94.40
2019-03-04T03:06:04.056Z,94.30
2019-03-04T03:07:08.410Z,94.20
2019-03-04T03:08:12.829Z,94.10
2019-03-04T03:09:17.167Z,94.10
2019-03-04T03:10:21.602Z,93.80
2019-03-04T03:11:26.083Z,94.10
2019-03-04T03:12:30.421Z,93.70
2019-03-04T03:13:34.970Z,93.60
2019-03-04T03:14:39.350Z,93.40
2019-03-04T03:15:43.819Z,93.40
2019-03-04T03:16:48.237Z,93.20
2019-03-04T03:17:52.674Z,93.00
2019-03-04T03:18:57.018Z,92.90
2019-03-04T03:20:01.333Z,92.70
2019-03-04T03:21:05.682Z,92.60
2019-03-04T03:22:10.143Z,92.50
2019-03-04T03:23:14.612Z,92.50
2019-03-04T03:24:19.197Z,92.30
2019-03-04T03:25:25.024Z,92.30
2019-03-04T03:26:29.431Z,92.10
2019-03-04T03:27:33.837Z,92.10
2019-03-04T03:28:38.212Z,92.00
2019-03-04T03:29:42.632Z,91.80
2019-03-04T03:30:46.958Z,91.80
2019-03-04T03:31:51.296Z,91.70
2019-03-04T03:32:55.724Z,91.60
2019-03-04T03:34:00.165Z,91.60
2019-03-04T03:35:08.041Z,91.60
2019-03-04T03:36:11.348Z,91.70
2019-03-04T03:37:15.754Z,91.50
2019-03-04T03:38:20.190Z,91.40
2019-03-04T03:39:24.536Z,91.30
2019-03-04T03:40:28.926Z,91.20
2019-03-04T03:41:33.271Z,91.30
2019-03-04T03:42:37.956Z,91.30
2019-03-04T03:43:42.369Z,91.20
2019-03-04T03:44:46.702Z,91.30
2019-03-04T03:45:51.094Z,91.30
2019-03-04T03:46:55.489Z,91.10
2019-03-04T03:47:59.809Z,91.10
2019-03-04T03:49:04.442Z,91.10
2019-03-04T03:50:09.807Z,90.80
2019-03-04T03:51:14.219Z,90.80
2019-03-04T03:52:18.639Z,90.80
2019-03-04T03:53:23.484Z,90.80
2019-03-04T03:54:27.995Z,90.80
2019-03-04T03:55:32.589Z,90.80
2019-03-04T03:56:37.048Z,90.70
2019-03-04T03:57:41.599Z,90.60
2019-03-04T03:58:45.984Z,90.60
2019-03-04T03:59:50.388Z,90.60
2019-03-04T04:00:54.692Z,90.50
2019-03-04T04:01:59.082Z,90.50
2019-03-04T04:03:03.395Z,90.50
2019-03-04T04:04:07.835Z,90.90
2019-03-04T04:05:12.256Z,90.50
2019-03-04T04:06:16.576Z,90.50
2019-03-04T04:07:21.026Z,90.50
2019-03-04T04:08:25.673Z,90.70
2019-03-04T04:09:30.073Z,90.40
2019-03-04T04:10:35.019Z,90.30
2019-03-04T04:11:39.321Z,90.20
2019-03-04T04:12:43.780Z,90.50
2019-03-04T04:13:48.107Z,90.10
2019-03-04T04:14:52.520Z,90.50
2019-03-04T04:15:57.067Z,90.10
2019-03-04T04:17:01.520Z,90.10
2019-03-04T04:18:06.052Z,90.20
2019-03-04T04:19:10.456Z,90.10
2019-03-04T04:20:15.172Z,90.00
2019-03-04T04:21:19.590Z,90.10
2019-03-04T04:22:24.137Z,90.20
2019-03-04T04:23:28.548Z,90.30
2019-03-04T04:24:32.982Z,90.40
2019-03-04T04:25:37.501Z,90.40
2019-03-04T04:26:42.047Z,90.40
2019-03-04T04:27:46.467Z,90.50
2019-03-04T04:28:56.223Z,90.60
2019-03-04T04:30:00.696Z,90.70
2019-03-04T04:31:05.147Z,90.80
2019-03-04T04:32:09.481Z,90.90
2019-03-04T04:33:13.987Z,91.00
2019-03-04T04:34:18.579Z,91.10
2019-03-04T04:35:23.080Z,91.20
2019-03-04T04:36:27.473Z,91.30
2019-03-04T04:37:31.789Z,91.20
2019-03-04T04:38:36.147Z,91.20
2019-03-04T04:39:40.596Z,91.20
2019-03-04T04:40:45.060Z,91.10
2019-03-04T04:41:49.460Z,91.00
2019-03-04T04:42:53.870Z,90.80
2019-03-04T04:43:58.179Z,90.70
2019-03-04T04:45:02.546Z,90.60
2019-03-04T04:46:06.971Z,90.60
2019-03-04T04:47:11.612Z,90.50
2019-03-04T04:48:15.940Z,90.50
2019-03-04T04:49:20.439Z,90.50
2019-03-04T04:50:25.495Z,90.40
2019-03-04T04:51:29.878Z,90.40
2019-03-04T04:52:34.208Z,90.70
2019-03-04T04:53:38.662Z,90.20
2019-03-04T04:54:43.039Z,90.10
2019-03-04T04:55:47.413Z,90.00
2019-03-04T04:56:51.759Z,89.70
2019-03-04T04:57:56.100Z,89.80
2019-03-04T04:59:00.467Z,89.40
2019-03-04T05:00:08.117Z,89.40
2019-03-04T05:01:12.483Z,89.20
2019-03-04T05:02:16.884Z,89.00
2019-03-04T05:03:21.322Z,88.60
2019-03-04T05:04:25.715Z,88.40
2019-03-04T05:05:30.212Z,88.40
2019-03-04T05:06:34.565Z,88.20
2019-03-04T05:07:39.013Z,88.30
2019-03-04T05:08:43.475Z,88.40
2019-03-04T05:09:47.807Z,88.20
2019-03-04T05:10:52.167Z,88.10
2019-03-04T05:11:56.483Z,88.30
2019-03-04T05:13:00.846Z,88.10
2019-03-04T05:14:05.171Z,88.30
2019-03-04T05:15:10.761Z,88.40
2019-03-04T05:16:15.198Z,88.30
2019-03-04T05:17:19.588Z,88.20
2019-03-04T05:18:24.015Z,88.20
2019-03-04T05:19:28.398Z,88.10
2019-03-04T05:20:32.843Z,88.10
2019-03-04T05:21:37.267Z,88.00
2019-03-04T05:22:41.853Z,88.10
2019-03-04T05:23:46.193Z,88.60
2019-03-04T05:24:50.690Z,87.70
2019-03-04T05:25:55.058Z,87.40
2019-03-04T05:26:59.554Z,87.50
2019-03-04T05:28:04.071Z,87.60
2019-03-04T05:29:08.535Z,87.60
2019-03-04T05:30:15.582Z,87.50
2019-03-04T05:31:19.879Z,87.70
2019-03-04T05:32:24.323Z,87.80
2019-03-04T05:33:28.631Z,87.60
2019-03-04T05:34:32.959Z,87.20
2019-03-04T05:35:37.286Z,87.10
2019-03-04T05:36:41.695Z,87.20
2019-03-04T05:37:46.118Z,87.90
2019-03-04T05:38:50.516Z,87.10
2019-03-04T05:39:54.927Z,87.10
2019-03-04T05:40:59.344Z,87.00
2019-03-04T05:42:03.821Z,86.80
2019-03-04T05:43:08.296Z,86.60
2019-03-04T05:44:12.617Z,86.30
2019-03-04T05:45:17.082Z,86.60
2019-03-04T05:46:21.424Z,86.60
2019-03-04T05:47:25.880Z,86.50
2019-03-04T05:48:30.246Z,86.50
2019-03-04T05:49:34.753Z,86.30
2019-03-04T05:50:39.130Z,86.40
2019-03-04T05:51:43.474Z,87.10
2019-03-04T05:52:47.786Z,85.90
2019-03-04T05:53:52.090Z,86.80
2019-03-04T05:54:56.431Z,85.70
2019-03-04T05:56:00.789Z,85.20
2019-03-04T05:57:05.283Z,84.80
2019-03-04T05:58:09.742Z,85.50
2019-03-04T05:59:19.779Z,84.50
2019-03-04T06:00:21.177Z,84.30
2019-03-04T06:01:31.049Z,84.30
2019-03-04T06:02:35.541Z,84.60
2019-03-04T06:03:39.894Z,83.90
2019-03-04T06:04:46.088Z,83.70
2019-03-04T06:05:50.476Z,83.70
2019-03-04T06:07:04.036Z,83.80
2019-03-04T06:08:09.140Z,83.60
2019-03-04T06:09:13.543Z,83.50
2019-03-04T06:10:17.914Z,83.60
2019-03-04T06:11:22.332Z,83.40
2019-03-04T06:12:26.759Z,83.10
2019-03-04T06:13:31.090Z,83.70
2019-03-04T06:14:35.608Z,82.80
2019-03-04T06:15:40.010Z,83.50
2019-03-04T06:16:47.535Z,82.80
2019-03-04T06:17:50.502Z,82.50
2019-03-04T06:18:54.921Z,83.40
2019-03-04T06:19:59.359Z,82.70
2019-03-04T06:21:03.762Z,82.80
2019-03-04T06:22:08.190Z,82.60
2019-03-04T06:23:12.526Z,82.60
2019-03-04T06:24:16.867Z,82.50
2019-03-04T06:25:23.924Z,82.50
2019-03-04T06:26:28.320Z,82.30
2019-03-04T06:27:33.050Z,82.50
2019-03-04T06:28:37.547Z,82.40
2019-03-04T06:29:41.939Z,82.30
2019-03-04T06:30:46.338Z,82.40
2019-03-04T06:31:51.498Z,82.30
2019-03-04T06:32:56.093Z,82.30
2019-03-04T06:34:00.543Z,82.30
2019-03-04T06:35:06.160Z,82.50
2019-03-04T06:36:10.670Z,82.40
2019-03-04T06:37:18.206Z,82.10
2019-03-04T06:38:22.761Z,81.90
2019-03-04T06:39:27.109Z,82.50
2019-03-04T06:40:31.637Z,82.10
2019-03-04T06:41:36.723Z,82.20
2019-03-04T06:42:41.221Z,83.30
2019-03-04T06:43:45.739Z,82.90
2019-03-04T06:44:50.166Z,83.90
2019-03-04T06:45:54.554Z,83.50
2019-03-04T06:46:59.018Z,83.80
2019-03-04T06:48:03.486Z,83.80
2019-03-04T06:49:08.042Z,84.30
2019-03-04T06:50:44.979Z,84.80
2019-03-04T06:51:58.252Z,85.10
2019-03-04T06:53:02.856Z,85.30
2019-03-04T06:54:14.760Z,85.50
2019-03-04T06:55:49.872Z,85.80
2019-03-04T06:57:04.407Z,86.00
2019-03-04T06:58:09.063Z,86.30
2019-03-04T06:59:28.999Z,86.10
2019-03-04T07:01:03.793Z,86.30
2019-03-04T07:02:11.606Z,86.30
2019-03-04T07:03:21.204Z,86.40
2019-03-04T07:04:37.092Z,86.10
2019-03-04T07:05:46.955Z,86.10
2019-03-04T07:06:59.003Z,86.00
2019-03-04T07:08:03.453Z,85.80
2019-03-04T07:09:14.778Z,86.10
2019-03-04T07:10:19.339Z,86.30
2019-03-04T07:11:23.864Z,85.90
2019-03-04T07:12:28.242Z,86.20
2019-03-04T07:13:32.551Z,86.40
2019-03-04T07:14:36.961Z,86.60
2019-03-04T07:15:41.460Z,86.70
2019-03-04T07:16:46.692Z,87.60
2019-03-04T07:17:51.089Z,87.00
2019-03-04T07:18:55.664Z,87.20
2019-03-04T07:20:04.689Z,87.50
2019-03-04T07:21:08.999Z,87.40
2019-03-04T07:22:13.461Z,87.50
2019-03-04T07:23:17.815Z,87.50
2019-03-04T07:24:22.395Z,87.30
2019-03-04T07:25:26.712Z,87.30
2019-03-04T07:26:31.023Z,87.40
2019-03-04T07:27:35.327Z,87.50
2019-03-04T07:28:39.771Z,87.40
2019-03-04T07:29:44.191Z,87.60
2019-03-04T07:30:48.570Z,87.50
2019-03-04T07:31:52.918Z,87.70
2019-03-04T07:32:57.224Z,87.80
2019-03-04T07:34:01.535Z,87.80
2019-03-04T07:35:08.066Z,87.80
2019-03-04T07:36:12.468Z,87.70
2019-03-04T07:37:16.886Z,87.50
2019-03-04T07:38:40.870Z,87.50
2019-03-04T07:39:45.292Z,87.20
2019-03-04T07:40:49.883Z,87.20
2019-03-04T07:41:58.558Z,86.70
2019-03-04T07:43:02.966Z,86.90
2019-03-04T07:44:07.344Z,85.80
2019-03-04T07:45:12.054Z,85.40
2019-03-04T07:46:16.474Z,85.00
2019-03-04T07:47:20.809Z,84.70
2019-03-04T07:48:25.255Z,84.50
2019-03-04T07:49:29.587Z,84.00
2019-03-04T07:50:33.891Z,84.20
2019-03-04T07:51:38.554Z,83.10
2019-03-04T07:52:42.972Z,82.40
2019-03-04T07:53:47.454Z,82.00
2019-03-04T07:54:51.860Z,81.90
2019-03-04T07:55:56.330Z,81.70
2019-03-04T07:57:00.662Z,81.20
2019-03-04T07:58:05.402Z,80.40
2019-03-04T07:59:09.984Z,80.40
2019-03-04T08:00:14.582Z,80.10
2019-03-04T08:01:19.268Z,79.70
2019-03-04T08:02:23.683Z,80.40
2019-03-04T08:03:28.135Z,79.20
2019-03-04T08:04:32.518Z,79.20
2019-03-04T08:05:38.833Z,78.40
2019-03-04T08:06:43.263Z,78.20
2019-03-04T08:07:50.312Z,78.00
2019-03-04T08:09:14.114Z,78.00
2019-03-04T08:10:57.146Z,77.90
2019-03-04T08:12:37.994Z,78.10
2019-03-04T08:13:49.846Z,78.10
2019-03-04T08:14:54.241Z,78.30
2019-03-04T08:15:59.611Z,78.20
2019-03-04T08:17:03.994Z,78.30
2019-03-04T08:18:08.597Z,78.00
2019-03-04T08:19:12.922Z,77.90
2019-03-04T08:20:17.684Z,78.20
2019-03-04T08:21:22.144Z,77.50
2019-03-04T08:22:26.895Z,76.70
2019-03-04T08:23:31.373Z,76.90
2019-03-04T08:24:35.872Z,77.00
2019-03-04T08:25:40.449Z,77.10
2019-03-04T08:26:44.961Z,76.60
2019-03-04T08:27:49.423Z,76.70
2019-03-04T08:28:54.110Z,76.80
2019-03-04T08:29:58.797Z,76.30
2019-03-04T08:31:03.294Z,76.00
2019-03-04T08:32:07.785Z,75.90
2019-03-04T08:33:12.376Z,76.40
2019-03-04T08:34:17.249Z,76.20
2019-03-04T08:35:21.612Z,75.70
2019-03-04T08:36:26.068Z,75.80
2019-03-04T08:37:30.397Z,75.90
2019-03-04T08:38:34.973Z,76.00
2019-03-04T08:39:39.356Z,76.20
2019-03-04T08:40:43.844Z,77.70
2019-03-04T08:41:48.381Z,90.70
2019-03-04T08:42:52.712Z,94.00
2019-03-04T08:43:57.103Z,97.10
2019-03-04T08:45:01.463Z,99.00
2019-03-04T08:46:05.805Z,99.40
2019-03-04T08:47:10.382Z,99.80
2019-03-04T08:48:15.182Z,99.90
2019-03-04T08:49:19.490Z,99.90
2019-03-04T08:50:23.835Z,99.90
2019-03-04T08:51:28.287Z,99.90
2019-03-04T08:52:32.659Z,99.90
2019-03-04T08:53:37.167Z,99.90
2019-03-04T08:54:41.675Z,99.90
2019-03-04T08:55:46.145Z,99.90
2019-03-04T08:56:50.612Z,99.90
2019-03-04T08:57:54.972Z,99.90
2019-03-04T08:58:59.725Z,99.90
2019-03-04T09:00:05.543Z,99.90
2019-03-04T09:01:09.927Z,99.90
2019-03-04T09:02:14.400Z,99.90
2019-03-04T09:03:18.748Z,99.90
2019-03-04T09:04:23.121Z,99.90
2019-03-04T09:05:27.539Z,99.90
2019-03-04T09:06:31.915Z,99.90
2019-03-04T09:07:36.418Z,99.90
2019-03-04T09:08:40.827Z,99.90
2019-03-04T09:09:45.246Z,99.90
2019-03-04T09:10:49.722Z,99.90
2019-03-04T09:11:54.137Z,99.90
2019-03-04T09:12:58.590Z,99.90
2019-03-04T09:14:02.911Z,99.90
2019-03-04T09:15:08.115Z,99.90
2019-03-04T09:16:12.680Z,99.90
2019-03-04T09:17:17.046Z,99.90
2019-03-04T09:18:21.382Z,99.90
2019-03-04T09:19:25.781Z,99.90
2019-03-04T09:20:30.304Z,99.90
2019-03-04T09:21:34.739Z,99.90
2019-03-04T09:22:39.111Z,99.90
2019-03-04T09:23:43.515Z,99.90
2019-03-04T09:24:48.026Z,99.90
2019-03-04T09:25:56.984Z,99.90
2019-03-04T09:27:01.350Z,99.90
2019-03-04T09:28:05.834Z,99.90
2019-03-04T09:29:10.207Z,99.90
2019-03-04T09:30:14.713Z,99.90
2019-03-04T09:31:21.805Z,99.90
2019-03-04T09:32:26.132Z,99.90
2019-03-04T09:33:30.515Z,99.90
2019-03-04T09:34:34.915Z,99.90
2019-03-04T09:35:39.219Z,99.90
2019-03-04T09:36:43.561Z,99.90
2019-03-04T09:37:47.902Z,99.90
2019-03-04T09:38:52.247Z,99.90
2019-03-04T09:39:56.660Z,99.90
2019-03-04T09:41:01.064Z,99.90
2019-03-04T09:42:17.700Z,99.90
2019-03-04T09:43:22.025Z,99.90
2019-03-04T09:44:26.346Z,99.90
2019-03-04T09:45:38.277Z,99.90
2019-03-04T09:46:36.845Z,99.90
2019-03-04T09:47:41.307Z,99.90
2019-03-04T09:48:45.635Z,99.90
2019-03-04T09:49:49.939Z,99.90
2019-03-04T09:50:54.388Z,99.90
2019-03-04T09:51:58.752Z,99.90
2019-03-04T09:53:03.087Z,99.90
2019-03-04T09:54:07.395Z,99.90
2019-03-04T09:55:12.811Z,99.90
2019-03-04T09:56:17.178Z,99.90
2019-03-04T09:57:21.473Z,99.90
2019-03-04T09:58:25.935Z,99.90
2019-03-04T09:59:30.235Z,99.90
2019-03-04T10:00:43.921Z,99.90
2019-03-04T10:01:52.518Z,99.90
2019-03-04T10:02:58.663Z,99.90
2019-03-04T10:04:46.388Z,99.90
2019-03-04T10:06:10.919Z,99.90
2019-03-04T10:07:46.803Z,99.90
2019-03-04T10:08:58.184Z,99.90
2019-03-04T10:10:38.625Z,99.90
2019-03-04T10:12:09.783Z,99.90
2019-03-04T10:13:54.563Z,99.90
2019-03-04T10:15:42.021Z,99.90
2019-03-04T10:17:01.963Z,99.90
2019-03-04T10:18:32.776Z,99.90
2019-03-04T10:20:00.336Z,99.90
2019-03-04T10:21:13.026Z,99.90
2019-03-04T10:22:29.926Z,99.90
2019-03-04T10:24:21.652Z,99.90
2019-03-04T10:26:21.895Z,99.90
2019-03-04T10:27:32.151Z,99.90
2019-03-04T10:29:05.012Z,99.90
2019-03-04T10:30:47.122Z,99.90
2019-03-04T10:32:25.224Z,99.90
2019-03-04T10:33:52.260Z,99.90
2019-03-04T10:35:17.431Z,99.90
2019-03-04T10:36:31.165Z,99.90
2019-03-04T10:38:02.076Z,99.90
2019-03-04T10:40:01.282Z,99.90
2019-03-04T10:41:32.214Z,99.90
2019-03-04T10:43:22.566Z,99.90
2019-03-04T10:45:00.012Z,99.90
2019-03-04T10:46:17.520Z,99.90
2019-03-04T10:47:21.955Z,99.90
2019-03-04T10:48:26.276Z,99.90
2019-03-04T10:49:31.764Z,99.90
2019-03-04T10:50:36.328Z,99.90
2019-03-04T10:51:40.781Z,99.90
2019-03-04T10:52:45.108Z,99.90
2019-03-04T10:53:49.443Z,99.90
2019-03-04T10:54:53.772Z,99.90
2019-03-04T10:55:58.079Z,99.90
2019-03-04T10:57:02.499Z,99.90
2019-03-04T10:58:08.262Z,99.90
2019-03-04T10:59:12.588Z,99.90
2019-03-04T11:00:18.367Z,99.90
2019-03-04T11:01:30.073Z,99.90
2019-03-04T11:02:28.732Z,99.90
2019-03-04T11:03:33.291Z,99.90
2019-03-04T11:04:37.617Z,99.90
2019-03-04T11:05:42.033Z,99.90
2019-03-04T11:06:46.422Z,99.90
2019-03-04T11:07:50.743Z,99.90
2019-03-04T11:08:55.152Z,99.90
2019-03-04T11:09:59.519Z,99.90
2019-03-04T11:11:03.923Z,99.90
2019-03-04T11:12:08.268Z,99.90
2019-03-04T11:13:12.608Z,99.90
2019-03-04T11:14:16.915Z,99.90
2019-03-04T11:15:23.224Z,99.90
2019-03-04T11:16:27.613Z,99.90
2019-03-04T11:17:31.916Z,99.90
2019-03-04T11:18:36.272Z,99.90
2019-03-04T11:19:40.575Z,99.90
2019-03-04T11:20:44.952Z,99.90
2019-03-04T11:21:49.267Z,99.90
2019-03-04T11:22:53.576Z,99.90
2019-03-04T11:23:57.892Z,99.90
2019-03-04T11:25:02.195Z,99.90
2019-03-04T11:26:06.684Z,99.90
2019-03-04T11:27:11.150Z,99.90
2019-03-04T11:28:15.579Z,99.90
2019-03-04T11:29:20.021Z,99.90
2019-03-04T11:30:27.332Z,99.90
2019-03-04T11:31:31.762Z,99.90
2019-03-04T11:32:36.909Z,99.90
2019-03-04T11:33:41.401Z,99.90
2019-03-04T11:34:45.862Z,99.90
2019-03-04T11:35:50.330Z,99.90
2019-03-04T11:36:54.659Z,99.90
2019-03-04T11:37:58.980Z,99.90
2019-03-04T11:39:15.491Z,99.90
2019-03-04T11:40:30.459Z,99.90
2019-03-04T11:41:34.895Z,99.90
2019-03-04T11:42:39.211Z,99.90
2019-03-04T11:43:43.720Z,99.90
2019-03-04T11:44:48.113Z,99.90
2019-03-04T11:45:52.425Z,99.90
2019-03-04T11:46:56.739Z,99.90
2019-03-04T11:48:01.070Z,99.90
2019-03-04T11:49:05.498Z,99.90
2019-03-04T11:50:12.110Z,99.90
2019-03-04T11:51:16.502Z,99.90
2019-03-04T11:52:20.802Z,99.90
2019-03-04T11:53:25.175Z,99.90
2019-03-04T11:54:29.529Z,99.90
2019-03-04T11:55:33.903Z,99.90
2019-03-04T11:56:38.303Z,99.90
2019-03-04T11:57:42.687Z,99.90
2019-03-04T11:58:46.999Z,99.90
2019-03-04T11:59:51.318Z,99.90
2019-03-04T12:01:09.803Z,99.90
2019-03-04T12:02:19.427Z,99.90
2019-03-04T12:03:23.760Z,99.90
2019-03-04T12:04:28.104Z,99.90
2019-03-04T12:05:32.485Z,99.90
2019-03-04T12:06:36.800Z,99.90
2019-03-04T12:07:41.555Z,99.90
2019-03-04T12:08:45.973Z,99.90
2019-03-04T12:09:50.488Z,99.90
2019-03-04T12:10:54.931Z,99.90
2019-03-04T12:11:59.260Z,99.90
2019-03-04T12:13:03.583Z,99.90
2019-03-04T12:14:07.950Z,99.90
2019-03-04T12:15:14.441Z,99.90
2019-03-04T12:16:18.849Z,99.90
2019-03-04T12:17:23.166Z,99.90
2019-03-04T12:18:27.700Z,99.90
2019-03-04T12:19:32.022Z,99.90
2019-03-04T12:20:36.447Z,99.90
2019-03-04T12:21:40.937Z,99.90
2019-03-04T12:22:45.410Z,99.90
2019-03-04T12:23:49.752Z,99.90
2019-03-04T12:24:54.138Z,99.90
2019-03-04T12:25:58.530Z,99.90
2019-03-04T12:27:02.917Z,99.90
2019-03-04T12:28:07.395Z,99.90
2019-03-04T12:29:11.715Z,99.90
2019-03-04T12:30:17.715Z,99.90
2019-03-04T12:31:23.351Z,99.90
2019-03-04T12:32:34.692Z,99.90
2019-03-04T12:33:38.987Z,99.90
2019-03-04T12:34:43.370Z,99.90
2019-03-04T12:35:47.683Z,99.90
2019-03-04T12:36:52.100Z,99.90
2019-03-04T12:37:56.526Z,99.90
2019-03-04T12:39:00.890Z,99.90
2019-03-04T12:40:07.231Z,99.90
2019-03-04T12:41:11.559Z,99.90
2019-03-04T12:42:15.883Z,99.90
2019-03-04T12:43:20.239Z,99.90
2019-03-04T12:44:24.580Z,99.90
2019-03-04T12:45:34.474Z,99.90
2019-03-04T12:46:35.774Z,99.90
2019-03-04T12:47:40.214Z,99.90
2019-03-04T12:48:44.614Z,99.90
2019-03-04T12:49:48.994Z,99.90
2019-03-04T12:50:53.333Z,99.90
2019-03-04T12:51:57.710Z,99.90
2019-03-04T12:53:02.153Z,99.90
2019-03-04T12:54:06.554Z,99.90
2019-03-04T12:55:11.766Z,99.90
2019-03-04T12:56:16.089Z,99.90
2019-03-04T12:57:20.926Z,99.90
2019-03-04T12:58:25.498Z,99.90
2019-03-04T12:59:29.864Z,99.90
2019-03-04T13:00:34.458Z,99.90
2019-03-04T13:01:38.763Z,99.90
2019-03-04T13:02:43.251Z,99.90
2019-03-04T13:03:47.581Z,99.80
2019-03-04T13:04:51.987Z,99.90
2019-03-04T13:05:56.454Z,99.90
2019-03-04T13:07:00.862Z,99.90
2019-03-04T13:08:05.246Z,99.90
2019-03-04T13:09:14.498Z,99.90
2019-03-04T13:10:15.990Z,99.90
2019-03-04T13:11:20.489Z,99.90
2019-03-04T13:12:24.890Z,99.90
2019-03-04T13:13:29.499Z,98.70
2019-03-04T13:14:33.965Z,97.00
2019-03-04T13:15:38.361Z,96.80
2019-03-04T13:16:42.711Z,96.30
2019-03-04T13:17:47.797Z,94.70
2019-03-04T13:18:52.111Z,95.30
2019-03-04T13:19:56.496Z,96.00
2019-03-04T13:21:00.811Z,96.90
2019-03-04T13:22:08.480Z,96.80
2019-03-04T13:23:11.443Z,96.00
2019-03-04T13:24:15.750Z,96.00
2019-03-04T13:25:20.206Z,95.20
2019-03-04T13:26:24.630Z,98.10
2019-03-04T13:27:29.006Z,99.90
2019-03-04T13:28:33.331Z,99.10
2019-03-04T13:29:37.722Z,96.30
2019-03-04T13:30:42.271Z,91.60
2019-03-04T13:31:46.699Z,90.90
2019-03-04T13:32:51.179Z,75.70
2019-03-04T13:33:55.485Z,78.00
2019-03-04T13:34:59.919Z,73.00
2019-03-04T13:36:06.050Z,70.60
2019-03-04T13:37:10.463Z,69.60
2019-03-04T13:38:14.895Z,70.70
2019-03-04T13:39:19.215Z,71.70
2019-03-04T13:40:23.611Z,75.00
2019-03-04T13:41:28.023Z,75.40
2019-03-04T13:42:32.446Z,75.40
2019-03-04T13:43:36.869Z,74.50
2019-03-04T13:44:41.186Z,75.10
2019-03-04T13:45:45.678Z,74.10
2019-03-04T13:46:50.071Z,73.60
2019-03-04T13:47:54.517Z,74.80
2019-03-04T13:48:58.863Z,76.00
2019-03-04T13:50:03.579Z,76.20
2019-03-04T13:51:08.047Z,74.60
2019-03-04T13:52:12.543Z,75.80
2019-03-04T13:53:17.023Z,75.70
2019-03-04T13:54:21.350Z,75.50
2019-03-04T13:55:25.942Z,75.80
2019-03-04T13:56:30.378Z,76.50
2019-03-04T13:57:34.715Z,76.80
2019-03-04T13:58:39.035Z,77.20
2019-03-04T13:59:43.412Z,76.60
2019-03-04T14:00:47.716Z,80.80
2019-03-04T14:01:52.131Z,82.20
2019-03-04T14:02:56.560Z,84.80
2019-03-04T14:04:00.895Z,87.80
2019-03-04T14:05:06.159Z,93.90
2019-03-04T14:06:10.603Z,96.30
2019-03-04T14:07:14.955Z,94.20
2019-03-04T14:08:19.456Z,90.60
2019-03-04T14:09:23.996Z,86.80
2019-03-04T14:10:31.124Z,84.80
2019-03-04T14:11:35.479Z,82.30
2019-03-04T14:12:39.821Z,79.10